Time;durP1;ratioP1;P1;durP2;ratioP2;P2;SDS_P1;SDS_P2;PMS_P1;PMS_P2;Temp;Humidity;BMP_temperature;BMP_pressure;BME280_temperature;BME280_humidity;BME280_pressure;Samples;Min_cycle;Max_cycle;Signal;HPM_P1;HPM_P2
2022/12/16 00:01:17;;;;;;;4.13;1.20;;;;;;;;;;5036242;28;20071;-68
2022/12/16 00:03:47;;;;;;;7.20;1.73;;;;;;;;;;5035719;28;20037;-69
2022/12/16 00:06:15;;;;;;;7.53;1.42;;;;;;;;;;5028698;28;20033;-67
2022/12/16 00:08:41;;;;;;;5.35;1.55;;;;;;;;;;5026553;28;20501;-68
2022/12/16 00:11:09;;;;;;;5.45;1.50;;;;;;;;;;5080003;28;20032;-61
2022/12/16 00:13:36;;;;;;;4.40;1.52;;;;;;;;;;5049667;28;20844;-64
2022/12/16 00:16:09;;;;;;;5.60;1.90;;;;;;;;;;5020907;28;20040;-68
2022/12/16 00:18:36;;;;;;;8.88;2.10;;;;;;;;;;5026792;28;20074;-68
2022/12/16 00:21:03;;;;;;;5.10;1.42;;;;;;;;;;5036522;28;20588;-67
2022/12/16 00:23:30;;;;;;;14.50;1.85;;;;;;;;;;5020352;28;20041;-68
2022/12/16 00:25:57;;;;;;;7.60;1.67;;;;;;;;;;5021627;28;20078;-68
2022/12/16 00:28:24;;;;;;;4.05;1.23;;;;;;;;;;5019715;28;20026;-68
2022/12/16 00:30:52;;;;;;;4.88;1.73;;;;;;;;;;5021769;28;20037;-67
2022/12/16 00:33:19;;;;;;;4.47;1.50;;;;;;;;;;5022601;28;20179;-68
2022/12/16 00:35:46;;;;;;;5.55;1.55;;;;;;;;;;5044526;28;20037;-68
2022/12/16 00:38:13;;;;;;;4.70;1.50;;;;;;;;;;5054531;28;20037;-68
2022/12/16 00:40:40;;;;;;;5.15;1.67;;;;;;;;;;5017039;28;20051;-68
2022/12/16 00:43:07;;;;;;;8.65;1.73;;;;;;;;;;5048401;28;20160;-67
2022/12/16 00:45:34;;;;;;;5.05;1.80;;;;;;;;;;5021117;28;20040;-68
2022/12/16 00:48:01;;;;;;;6.60;2.17;;;;;;;;;;5023045;28;20048;-69
2022/12/16 00:50:28;;;;;;;7.43;2.03;;;;;;;;;;5022579;28;20038;-69
2022/12/16 00:52:54;;;;;;;7.68;1.90;;;;;;;;;;5022043;28;20701;-69
2022/12/16 00:55:21;;;;;;;4.90;1.42;;;;;;;;;;5019267;28;20121;-67
2022/12/16 00:57:48;;;;;;;5.25;1.83;;;;;;;;;;5037192;28;20253;-68
2022/12/16 01:00:16;;;;;;;12.75;4.20;;;;;;;;;;5028863;28;20133;-68
2022/12/16 01:02:43;;;;;;;10.32;4.53;;;;;;;;;;5020378;28;20129;-66
2022/12/16 01:05:11;;;;;;;12.18;5.13;;;;;;;;;;5023513;28;20038;-66
2022/12/16 01:07:38;;;;;;;7.93;3.55;;;;;;;;;;5021632;28;20041;-67
2022/12/16 01:10:05;;;;;;;15.77;3.58;;;;;;;;;;5053596;28;20049;-66
2022/12/16 01:12:32;;;;;;;3.78;2.00;;;;;;;;;;5020600;28;20060;-67
2022/12/16 01:14:59;;;;;;;5.35;2.35;;;;;;;;;;5021366;28;20069;-66
2022/12/16 01:17:26;;;;;;;7.22;2.65;;;;;;;;;;5019942;28;20175;-69
2022/12/16 01:19:53;;;;;;;9.00;2.47;;;;;;;;;;5020998;28;20145;-67
2022/12/16 01:22:20;;;;;;;8.68;2.78;;;;;;;;;;5032196;28;20045;-68
2022/12/16 01:24:47;;;;;;;7.05;2.80;;;;;;;;;;5036298;28;20045;-68
2022/12/16 01:27:15;;;;;;;6.93;2.63;;;;;;;;;;5047666;28;20061;-67
2022/12/16 01:29:42;;;;;;;8.05;2.85;;;;;;;;;;5032716;28;20081;-65
2022/12/16 01:32:14;;;;;;;4.78;2.15;;;;;;;;;;5021407;28;20140;-67
2022/12/16 01:34:42;;;;;;;10.27;2.33;;;;;;;;;;5020920;28;20037;-68
2022/12/16 01:37:14;;;;;;;5.57;2.55;;;;;;;;;;5035766;28;20067;-67
2022/12/16 01:39:41;;;;;;;5.73;1.80;;;;;;;;;;5054422;28;20065;-68
2022/12/16 01:42:14;;;;;;;14.35;2.50;;;;;;;;;;5021589;28;20045;-67
2022/12/16 01:44:41;;;;;;;;;;;;;;;;;;5023694;28;20933;-67
2022/12/16 01:47:12;;;;;;;4.95;1.83;;;;;;;;;;5035738;28;19967;-68
2022/12/16 01:49:41;;;;;;;6.47;1.73;;;;;;;;;;5018782;28;21402;-68
2022/12/16 01:52:11;;;;;;;5.88;2.03;;;;;;;;;;5051956;28;20122;-66
2022/12/16 01:54:39;;;;;;;9.27;2.40;;;;;;;;;;5020325;28;20778;-67
2022/12/16 01:57:08;;;;;;;8.57;2.05;;;;;;;;;;5022128;28;20463;-66
2022/12/16 01:59:37;;;;;;;4.90;2.00;;;;;;;;;;5020863;28;20742;-68
2022/12/16 02:02:04;;;;;;;6.03;2.40;;;;;;;;;;5051014;28;20569;-65
2022/12/16 02:04:30;;;;;;;5.35;2.20;;;;;;;;;;5020665;28;20529;-66
2022/12/16 02:06:58;;;;;;;13.20;2.33;;;;;;;;;;5021371;28;20060;-65
2022/12/16 02:09:25;;;;;;;11.20;2.25;;;;;;;;;;5021227;28;20038;-67
2022/12/16 02:12:13;;;;;;;6.63;2.25;;;;;;;;;;5019429;28;20946;-67
2022/12/16 02:15:14;;;;;;;17.45;2.75;;;;;;;;;;5019398;28;20050;-67
2022/12/16 02:17:53;;;;;;;12.13;2.63;;;;;;;;;;5002631;28;20038;-67
2022/12/16 02:20:38;;;;;;;7.53;2.28;;;;;;;;;;5020742;28;20051;-67
2022/12/16 02:23:16;;;;;;;10.75;1.98;;;;;;;;;;5021937;28;20129;-67
2022/12/16 02:25:58;;;;;;;5.57;2.13;;;;;;;;;;5019778;28;20088;-66
2022/12/16 02:28:34;;;;;;;5.43;2.05;;;;;;;;;;5020015;28;20034;-68
2022/12/16 02:31:21;;;;;;;5.53;2.22;;;;;;;;;;5019053;28;20037;-66
2022/12/16 02:33:57;;;;;;;8.48;2.03;;;;;;;;;;5028726;28;20440;-66
2022/12/16 02:36:29;;;;;;;5.53;1.00;;;;;;;;;;5050575;28;20067;-66
2022/12/16 02:38:58;;;;;;;12.85;2.92;;;;;;;;;;5020752;28;20037;-66
2022/12/16 02:42:03;;;;;;;14.60;1.70;;;;;;;;;;5017401;28;20065;-70
2022/12/16 02:44:35;;;;;;;8.48;1.98;;;;;;;;;;5051992;28;20163;-68
2022/12/16 02:47:02;;;;;;;9.27;2.58;;;;;;;;;;5036758;28;20056;-68
2022/12/16 02:49:29;;;;;;;4.55;2.05;;;;;;;;;;5052306;28;20041;-66
2022/12/16 02:51:57;;;;;;;6.30;1.88;;;;;;;;;;5051030;28;20469;-67
2022/12/16 02:54:24;;;;;;;5.47;1.65;;;;;;;;;;5051415;28;20032;-66
2022/12/16 02:56:50;;;;;;;11.10;1.80;;;;;;;;;;5022291;28;20052;-66
2022/12/16 02:59:35;;;;;;;8.25;1.40;;;;;;;;;;5018057;28;20080;-67
2022/12/16 03:02:20;;;;;;;9.77;2.00;;;;;;;;;;5018542;28;20041;-66
2022/12/16 03:05:16;;;;;;;5.72;1.58;;;;;;;;;;5018759;28;20746;-66
2022/12/16 03:07:45;;;;;;;5.07;1.40;;;;;;;;;;5021238;28;20041;-66
2022/12/16 03:10:15;;;;;;;7.85;2.20;;;;;;;;;;5020362;28;20470;-69
2022/12/16 03:12:43;;;;;;;12.20;2.08;;;;;;;;;;5016858;28;21819;-69
2022/12/16 03:15:10;;;;;;;6.63;1.33;;;;;;;;;;5018662;28;20097;-67
2022/12/16 03:17:37;;;;;;;6.90;1.90;;;;;;;;;;5017127;28;20041;-65
2022/12/16 03:20:09;;;;;;;11.15;2.40;;;;;;;;;;5019221;28;20083;-65
2022/12/16 03:22:37;;;;;;;8.82;2.30;;;;;;;;;;5019167;28;20037;-64
2022/12/16 03:25:06;;;;;;;5.22;1.75;;;;;;;;;;5019708;28;20042;-64
2022/12/16 03:27:53;;;;;;;10.18;1.80;;;;;;;;;;5017839;28;20058;-67
2022/12/16 03:30:25;;;;;;;8.32;1.90;;;;;;;;;;5033154;28;20049;-64
2022/12/16 03:32:56;;;;;;;6.22;2.05;;;;;;;;;;5013484;28;20064;-65
2022/12/16 03:35:28;;;;;;;5.68;1.77;;;;;;;;;;5019307;28;20033;-67
2022/12/16 03:37:57;;;;;;;7.50;2.30;;;;;;;;;;5029363;28;20056;-65
2022/12/16 03:40:24;;;;;;;9.93;2.10;;;;;;;;;;5054330;28;20175;-67
2022/12/16 03:42:52;;;;;;;6.60;2.17;;;;;;;;;;5026087;28;20128;-68
2022/12/16 03:45:22;;;;;;;13.63;2.88;;;;;;;;;;5020482;28;20045;-67
2022/12/16 03:47:50;;;;;;;5.05;2.15;;;;;;;;;;5018341;28;20045;-67
2022/12/16 03:50:19;;;;;;;7.93;2.65;;;;;;;;;;5018840;28;20037;-67
2022/12/16 03:52:46;;;;;;;11.45;2.47;;;;;;;;;;5027045;28;20049;-66
2022/12/16 03:55:12;;;;;;;15.07;2.33;;;;;;;;;;5026303;28;20040;-67
2022/12/16 03:57:39;;;;;;;5.28;1.80;;;;;;;;;;5037477;28;20040;-67
2022/12/16 04:00:06;;;;;;;7.90;2.50;;;;;;;;;;5055537;28;20041;-66
2022/12/16 04:02:33;;;;;;;11.27;2.88;;;;;;;;;;5037117;28;20044;-67
2022/12/16 04:04:59;;;;;;;18.25;2.83;;;;;;;;;;5040173;28;20037;-67
2022/12/16 04:07:26;;;;;;;10.68;2.53;;;;;;;;;;5038186;28;20103;-68
2022/12/16 04:09:53;;;;;;;9.38;2.58;;;;;;;;;;5039105;28;20779;-66
2022/12/16 04:26:14;;;;;;;13.23;2.53;;;;;;;;;;5017580;28;20057;-66
2022/12/16 04:28:41;;;;;;;9.00;2.70;;;;;;;;;;5017229;28;20072;-66
2022/12/16 04:31:08;;;;;;;7.03;2.67;;;;;;;;;;5018061;28;20124;-65
